createdAt,value
2023-04-01T00:00:40.894Z,0
2023-04-01T00:01:41.499Z,0
2023-04-01T00:02:42.193Z,0
2023-04-01T00:03:42.922Z,0
2023-04-01T00:04:43.595Z,0
2023-04-01T00:05:44.182Z,0
2023-04-01T00:06:44.793Z,0
2023-04-01T00:07:45.369Z,0
2023-04-01T00:08:45.971Z,0
2023-04-01T00:09:46.568Z,0
2023-04-01T00:10:47.161Z,0
2023-04-01T00:11:47.772Z,0
2023-04-01T00:12:48.394Z,0
2023-04-01T00:13:48.986Z,0
2023-04-01T00:14:49.596Z,0
2023-04-01T00:15:50.201Z,0
2023-04-01T00:16:50.829Z,0
2023-04-01T00:17:51.450Z,0
2023-04-01T00:18:51.991Z,0
2023-04-01T00:19:52.585Z,0
2023-04-01T00:20:53.177Z,0
2023-04-01T00:21:53.773Z,0
2023-04-01T00:22:54.366Z,0
2023-04-01T00:23:54.960Z,0
2023-04-01T00:24:55.573Z,0
2023-04-01T00:25:56.164Z,0
2023-04-01T00:26:56.762Z,0
2023-04-01T00:27:57.351Z,0
2023-04-01T00:28:57.961Z,0
2023-04-01T00:29:58.555Z,0
2023-04-01T00:30:59.147Z,0
2023-04-01T00:31:59.827Z,0
2023-04-01T00:33:00.418Z,0
2023-04-01T00:34:00.990Z,0
2023-04-01T00:35:01.587Z,0
2023-04-01T00:36:02.269Z,0
2023-04-01T00:37:02.888Z,0
2023-04-01T00:38:03.475Z,0
2023-04-01T00:39:04.051Z,0
2023-04-01T00:40:04.644Z,0
2023-04-01T00:41:05.238Z,0
2023-04-01T00:42:05.830Z,0
2023-04-01T00:43:06.444Z,0
2023-04-01T00:44:07.039Z,0
2023-04-01T00:45:07.627Z,0
2023-04-01T00:46:08.229Z,0
2023-04-01T00:47:08.979Z,0
2023-04-01T00:48:09.548Z,0
2023-04-01T00:49:10.150Z,0
2023-04-01T00:50:10.744Z,0
2023-04-01T00:51:11.334Z,0
2023-04-01T00:52:11.937Z,0
2023-04-01T00:53:12.546Z,0
2023-04-01T00:54:13.136Z,0
2023-04-01T00:55:13.729Z,0
2023-04-01T00:56:14.322Z,0
2023-04-01T00:57:14.954Z,0
2023-04-01T00:58:15.510Z,0
2023-04-01T00:59:16.110Z,0
2023-04-01T01:00:16.693Z,0
2023-04-01T01:01:17.331Z,0
2023-04-01T01:02:17.940Z,0
2023-04-01T01:03:18.529Z,0
2023-04-01T01:04:19.097Z,0
2023-04-01T01:05:19.695Z,0
2023-04-01T01:06:20.307Z,0
2023-04-01T01:07:20.895Z,0
2023-04-01T01:08:21.487Z,0
2023-04-01T01:09:22.081Z,0
2023-04-01T01:10:22.695Z,0
2023-04-01T01:11:23.567Z,0
2023-04-01T01:12:24.466Z,0
2023-04-01T01:13:25.059Z,0
2023-04-01T01:14:25.653Z,0
2023-04-01T01:15:26.253Z,0
2023-04-01T01:16:26.897Z,0
2023-04-01T01:17:27.508Z,0
2023-04-01T01:18:28.082Z,0
2023-04-01T01:19:28.651Z,0
2023-04-01T01:20:29.264Z,0
2023-04-01T01:21:29.861Z,0
2023-04-01T01:22:30.457Z,0
2023-04-01T01:23:31.045Z,0
2023-04-01T01:24:31.637Z,0
2023-04-01T01:25:32.545Z,0
2023-04-01T01:26:33.374Z,0
2023-04-01T01:27:33.972Z,0
2023-04-01T01:28:34.554Z,0
2023-04-01T01:29:35.146Z,0
2023-04-01T01:30:35.768Z,0
2023-04-01T01:31:36.337Z,0
2023-04-01T01:32:36.956Z,0
2023-04-01T01:33:37.520Z,0
2023-04-01T01:34:38.131Z,0
2023-04-01T01:35:38.705Z,0
2023-04-01T01:36:39.299Z,0
2023-04-01T01:37:39.902Z,0
2023-04-01T01:38:40.510Z,0
2023-04-01T01:39:41.107Z,0
2023-04-01T01:40:41.694Z,0
2023-04-01T01:41:42.301Z,0
2023-04-01T01:42:42.879Z,0
2023-04-01T01:43:43.469Z,0
2023-04-01T01:44:44.062Z,0
2023-04-01T01:45:44.683Z,0
2023-04-01T01:46:45.248Z,0
2023-04-01T01:47:45.877Z,0
2023-04-01T01:48:46.436Z,0
2023-04-01T01:49:47.031Z,0
2023-04-01T01:50:47.621Z,0
2023-04-01T01:51:48.212Z,0
2023-04-01T01:52:48.804Z,0
2023-04-01T01:53:49.403Z,0
2023-04-01T01:54:50.021Z,0
2023-04-01T01:55:50.601Z,0
2023-04-01T01:56:51.237Z,0
2023-04-01T01:57:51.795Z,0
2023-04-01T01:58:52.391Z,0
2023-04-01T01:59:52.983Z,0
2023-04-01T02:00:53.579Z,0
2023-04-01T02:01:54.193Z,0
2023-04-01T02:02:54.916Z,0
2023-04-01T02:03:55.390Z,0
2023-04-01T02:04:56.006Z,0
2023-04-01T02:05:56.601Z,0
2023-04-01T02:06:57.197Z,0
2023-04-01T02:07:57.788Z,0
2023-04-01T02:08:58.384Z,0
2023-04-01T02:09:58.978Z,0
2023-04-01T02:10:59.567Z,0
2023-04-01T02:12:00.176Z,0
2023-04-01T02:13:00.780Z,0
2023-04-01T02:14:01.394Z,0
2023-04-01T02:15:02.000Z,0
2023-04-01T02:16:02.626Z,0
2023-04-01T02:17:03.204Z,0
2023-04-01T02:18:03.865Z,0
2023-04-01T02:19:04.458Z,0
2023-04-01T02:20:05.075Z,0
2023-04-01T02:21:05.665Z,0
2023-04-01T02:22:06.262Z,0
2023-04-01T02:23:06.853Z,0
2023-04-01T02:24:07.440Z,0
2023-04-01T02:25:08.062Z,0
2023-04-01T02:26:08.624Z,0
2023-04-01T02:27:09.218Z,0
2023-04-01T02:28:09.811Z,0
2023-04-01T02:29:10.402Z,0
2023-04-01T02:30:11.011Z,0
2023-04-01T02:31:11.709Z,0
2023-04-01T02:32:12.256Z,0
2023-04-01T02:33:12.913Z,0
2023-04-01T02:34:13.504Z,0
2023-04-01T02:35:14.098Z,0
2023-04-01T02:36:14.746Z,0
2023-04-01T02:37:15.323Z,0
2023-04-01T02:38:15.902Z,0
2023-04-01T02:39:16.494Z,0
2023-04-01T02:40:17.093Z,0
2023-04-01T02:41:17.683Z,0
2023-04-01T02:42:18.275Z,0
2023-04-01T02:43:18.885Z,0
2023-04-01T02:44:19.476Z,0
2023-04-01T02:45:20.072Z,0
2023-04-01T02:46:20.778Z,0
2023-04-01T02:47:21.368Z,0
2023-04-01T02:48:21.929Z,0
2023-04-01T02:49:22.522Z,0
2023-04-01T02:50:23.117Z,0
2023-04-01T02:51:23.721Z,0
2023-04-01T02:52:24.309Z,0
2023-04-01T02:53:24.920Z,0
2023-04-01T02:54:25.533Z,0
2023-04-01T02:55:26.104Z,0
2023-04-01T02:56:26.700Z,0
2023-04-01T02:57:27.391Z,0
2023-04-01T02:58:28.002Z,0
2023-04-01T02:59:28.616Z,0
2023-04-01T03:00:29.211Z,0
2023-04-01T03:01:29.847Z,0
2023-04-01T03:02:30.522Z,0
2023-04-01T03:03:31.147Z,0
2023-04-01T03:04:31.696Z,0
2023-04-01T03:05:32.661Z,0
2023-04-01T03:06:33.420Z,0
2023-04-01T03:07:34.035Z,0
2023-04-01T03:08:34.638Z,0
2023-04-01T03:09:35.246Z,0
2023-04-01T03:10:35.869Z,0
2023-04-01T03:11:36.433Z,0
2023-04-01T03:12:37.029Z,0
2023-04-01T03:13:37.669Z,0
2023-04-01T03:14:38.236Z,0
2023-04-01T03:15:38.827Z,0
2023-04-01T03:16:39.465Z,0
2023-04-01T03:17:40.086Z,0
2023-04-01T03:18:40.650Z,0
2023-04-01T03:19:41.239Z,0
2023-04-01T03:20:41.834Z,0
2023-04-01T03:21:42.448Z,0
2023-04-01T03:22:43.245Z,0
2023-04-01T03:23:43.802Z,0
2023-04-01T03:24:44.402Z,0
2023-04-01T03:25:45.006Z,0
2023-04-01T03:26:45.618Z,0
2023-04-01T03:27:46.192Z,0
2023-04-01T03:28:46.812Z,0
2023-04-01T03:29:47.426Z,0
2023-04-01T03:30:48.047Z,0
2023-04-01T03:31:48.618Z,0
2023-04-01T03:32:49.225Z,0
2023-04-01T03:33:49.829Z,0
2023-04-01T03:34:50.434Z,0
2023-04-01T03:35:51.028Z,0
2023-04-01T03:36:51.629Z,0
2023-04-01T03:37:52.238Z,0
2023-04-01T03:38:52.835Z,0
2023-04-01T03:39:53.426Z,0
2023-04-01T03:40:54.053Z,0
2023-04-01T03:41:54.628Z,0
2023-04-01T03:42:55.285Z,0
2023-04-01T03:43:55.839Z,0
2023-04-01T03:44:56.431Z,0
2023-04-01T03:45:57.032Z,0
2023-04-01T03:46:57.633Z,0
2023-04-01T03:47:58.354Z,0
2023-04-01T03:48:58.910Z,0
2023-04-01T03:49:59.521Z,0
2023-04-01T03:51:00.113Z,0
2023-04-01T03:52:00.704Z,0
2023-04-01T03:53:01.298Z,0
2023-04-01T03:54:01.896Z,0
2023-04-01T03:55:02.487Z,0
2023-04-01T03:56:03.079Z,0
2023-04-01T03:57:03.734Z,0
2023-04-01T03:58:04.381Z,0
2023-04-01T03:59:04.980Z,0
2023-04-01T04:00:05.567Z,0
2023-04-01T04:01:06.161Z,0
2023-04-01T04:02:06.753Z,0
2023-04-01T04:03:07.506Z,0
2023-04-01T04:04:08.192Z,0
2023-04-01T04:05:08.780Z,0
2023-04-01T04:06:09.380Z,0
2023-04-01T04:07:09.985Z,0
2023-04-01T04:08:10.638Z,0
2023-04-01T04:09:11.234Z,0
2023-04-01T04:10:11.835Z,0
2023-04-01T04:11:12.436Z,0
2023-04-01T04:12:13.032Z,0
2023-04-01T04:13:13.624Z,0
2023-04-01T04:14:14.218Z,0
2023-04-01T04:15:14.812Z,0
2023-04-01T04:16:15.446Z,0
2023-04-01T04:17:16.011Z,0
2023-04-01T04:18:16.607Z,0
2023-04-01T04:19:17.202Z,0
2023-04-01T04:20:17.794Z,0
2023-04-01T04:21:18.411Z,0
2023-04-01T04:22:18.995Z,0
2023-04-01T04:23:19.596Z,0
2023-04-01T04:24:20.181Z,0
2023-04-01T04:25:20.777Z,0
2023-04-01T04:26:21.373Z,0
2023-04-01T04:27:21.970Z,0
2023-04-01T04:28:22.582Z,0
2023-04-01T04:29:23.169Z,4
2023-04-01T04:30:23.763Z,4
2023-04-01T04:31:24.420Z,4
2023-04-01T04:32:24.998Z,4
2023-04-01T04:33:25.600Z,4
2023-04-01T04:34:26.173Z,4
2023-04-01T04:35:26.775Z,4
2023-04-01T04:36:27.355Z,8
2023-04-01T04:37:27.972Z,8
2023-04-01T04:38:28.562Z,8
2023-04-01T04:39:29.158Z,12
2023-04-01T04:40:29.763Z,16
2023-04-01T04:41:30.344Z,20
2023-04-01T04:42:30.938Z,24
2023-04-01T04:43:31.535Z,28
2023-04-01T04:44:32.131Z,32
2023-04-01T04:45:32.894Z,36
2023-04-01T04:46:33.637Z,48
2023-04-01T04:47:34.188Z,48
2023-04-01T04:48:34.771Z,60
2023-04-01T04:49:35.389Z,68
2023-04-01T04:50:35.989Z,72
2023-04-01T04:51:36.573Z,80
2023-04-01T04:52:37.190Z,96
2023-04-01T04:53:37.784Z,112
2023-04-01T04:54:38.378Z,128
2023-04-01T04:55:38.992Z,148
2023-04-01T04:56:39.589Z,164
2023-04-01T04:57:40.184Z,168
2023-04-01T04:58:40.777Z,184
2023-04-01T04:59:41.383Z,220
2023-04-01T05:00:41.992Z,276
2023-04-01T05:01:42.591Z,332
2023-04-01T05:02:43.271Z,392
2023-04-01T05:03:43.846Z,444
2023-04-01T05:04:44.466Z,492
2023-04-01T05:05:45.056Z,532
2023-04-01T05:06:45.656Z,560
2023-04-01T05:07:46.251Z,600
2023-04-01T05:08:46.876Z,628
2023-04-01T05:09:47.490Z,660
2023-04-01T05:10:48.089Z,672
2023-04-01T05:11:48.673Z,704
2023-04-01T05:12:49.268Z,756
2023-04-01T05:13:49.866Z,808
2023-04-01T05:14:50.462Z,888
2023-04-01T05:15:51.060Z,976
2023-04-01T05:16:51.753Z,1080
2023-04-01T05:17:52.368Z,1200
2023-04-01T05:18:52.947Z,1320
2023-04-01T05:19:53.538Z,1412
2023-04-01T05:20:54.133Z,1508
2023-04-01T05:21:54.729Z,1624
2023-04-01T05:22:55.329Z,1720
2023-04-01T05:23:55.924Z,1788
2023-04-01T05:24:56.526Z,1856
2023-04-01T05:25:57.142Z,1940
2023-04-01T05:26:57.739Z,2012
2023-04-01T05:27:58.336Z,2112
2023-04-01T05:28:58.936Z,2252
2023-04-01T05:29:59.530Z,2428
2023-04-01T05:31:00.222Z,2584
2023-04-01T05:32:00.768Z,2716
2023-04-01T05:33:01.455Z,2868
2023-04-01T05:34:02.077Z,3020
2023-04-01T05:35:02.732Z,3152
2023-04-01T05:36:03.323Z,3304
2023-04-01T05:37:03.896Z,3464
2023-04-01T05:38:04.499Z,3644
2023-04-01T05:39:05.094Z,3800
2023-04-01T05:40:05.702Z,3936
2023-04-01T05:41:06.308Z,4036
2023-04-01T05:42:06.914Z,4132
2023-04-01T05:43:07.510Z,4288
2023-04-01T05:44:08.114Z,4376
2023-04-01T05:45:08.708Z,4416
2023-04-01T05:46:09.386Z,4420
2023-04-01T05:47:09.979Z,4384
2023-04-01T05:48:10.575Z,4368
2023-04-01T05:49:11.182Z,4316
2023-04-01T05:50:11.804Z,4244
2023-04-01T05:51:12.397Z,4120
2023-04-01T05:52:13.007Z,3976
2023-04-01T05:53:13.598Z,3852
2023-04-01T05:54:14.186Z,3712
2023-04-01T05:55:14.788Z,3552
2023-04-01T05:56:15.399Z,3364
2023-04-01T05:57:16.055Z,3160
2023-04-01T05:58:16.613Z,2960
2023-04-01T05:59:17.229Z,2768
2023-04-01T06:00:17.828Z,2596
2023-04-01T06:01:18.427Z,2416
2023-04-01T06:02:19.044Z,2268
2023-04-01T06:03:19.691Z,2132
2023-04-01T06:04:20.375Z,2016
2023-04-01T06:05:20.952Z,1932
2023-04-01T06:06:21.529Z,1868
2023-04-01T06:07:22.126Z,1816
2023-04-01T06:08:22.724Z,1784
2023-04-01T06:09:23.323Z,1772
2023-04-01T06:10:23.925Z,1772
2023-04-01T06:11:24.517Z,1788
2023-04-01T06:12:25.136Z,1816
2023-04-01T06:13:25.734Z,1852
2023-04-01T06:14:26.334Z,1912
2023-04-01T06:15:26.932Z,1976
2023-04-01T06:16:27.585Z,2048
2023-04-01T06:17:28.190Z,2136
2023-04-01T06:18:28.749Z,2228
2023-04-01T06:19:29.349Z,2328
2023-04-01T06:20:29.949Z,2428
2023-04-01T06:21:30.549Z,2552
2023-04-01T06:22:31.152Z,2688
2023-04-01T06:23:31.773Z,2836
2023-04-01T06:24:32.385Z,3000
2023-04-01T06:25:33.199Z,3180
2023-04-01T06:26:33.923Z,3368
2023-04-01T06:27:34.553Z,3580
2023-04-01T06:28:35.149Z,3808
2023-04-01T06:29:35.767Z,4048
2023-04-01T06:30:36.340Z,4300
2023-04-01T06:31:37.011Z,4564
2023-04-01T06:32:37.638Z,4836
2023-04-01T06:33:38.202Z,5128
2023-04-01T06:34:38.804Z,5428
2023-04-01T06:35:39.516Z,5740
2023-04-01T06:36:40.200Z,6032
2023-04-01T06:37:40.831Z,6304
2023-04-01T06:38:41.410Z,6508
2023-04-01T06:39:42.030Z,6700
2023-04-01T06:40:42.650Z,6880
2023-04-01T06:41:43.266Z,7044
2023-04-01T06:42:43.888Z,7200
2023-04-01T06:43:44.506Z,7332
2023-04-01T06:44:45.120Z,7436
2023-04-01T06:45:45.743Z,7532
2023-04-01T06:46:46.342Z,7624
2023-04-01T06:47:47.008Z,7736
2023-04-01T06:48:47.553Z,7884
2023-04-01T06:49:48.152Z,8060
2023-04-01T06:50:48.750Z,8264
2023-04-01T06:51:49.347Z,8532
2023-04-01T06:52:49.950Z,8848
2023-04-01T06:53:50.545Z,9176
2023-04-01T06:54:51.166Z,9528
2023-04-01T06:55:51.758Z,9852
2023-04-01T06:56:52.387Z,10236
2023-04-01T06:57:52.955Z,10652
2023-04-01T06:58:53.558Z,11084
2023-04-01T06:59:54.160Z,11532
2023-04-01T07:00:54.803Z,12008
2023-04-01T07:01:55.358Z,12528
2023-04-01T07:02:55.988Z,13024
2023-04-01T07:03:56.618Z,13532
2023-04-01T07:04:57.213Z,13908
2023-04-01T07:05:57.813Z,14192
2023-04-01T07:06:58.410Z,14320
2023-04-01T07:07:59.013Z,14432
2023-04-01T07:08:59.606Z,14376
2023-04-01T07:10:00.230Z,14344
2023-04-01T07:11:00.804Z,14344
2023-04-01T07:12:01.412Z,14324
2023-04-01T07:13:02.002Z,14228
2023-04-01T07:14:02.622Z,14248
2023-04-01T07:15:03.228Z,14436
2023-04-01T07:16:03.822Z,14504
2023-04-01T07:17:04.458Z,14564
2023-04-01T07:18:05.060Z,14760
2023-04-01T07:19:05.629Z,15048
2023-04-01T07:20:06.227Z,15500
2023-04-01T07:21:06.853Z,15820
2023-04-01T07:22:07.476Z,15992
2023-04-01T07:23:08.091Z,15416
2023-04-01T07:24:08.684Z,15828
2023-04-01T07:25:09.282Z,16272
2023-04-01T07:26:09.881Z,16508
2023-04-01T07:27:10.477Z,17308
2023-04-01T07:28:11.078Z,17264
2023-04-01T07:29:11.676Z,18080
2023-04-01T07:30:12.272Z,18496
2023-04-01T07:31:12.912Z,18432
2023-04-01T07:32:13.470Z,18048
2023-04-01T07:33:14.080Z,18816
2023-04-01T07:34:14.673Z,19392
2023-04-01T07:35:15.273Z,20192
2023-04-01T07:36:15.945Z,21312
2023-04-01T07:37:16.510Z,21088
2023-04-01T07:38:17.160Z,20864
2023-04-01T07:39:17.711Z,20768
2023-04-01T07:40:18.337Z,20928
2023-04-01T07:41:19.258Z,21088
2023-04-01T07:42:19.805Z,21248
2023-04-01T07:43:20.454Z,21600
2023-04-01T07:44:21.031Z,22336
2023-04-01T07:45:21.631Z,23808
2023-04-01T07:46:22.311Z,24704
2023-04-01T07:47:22.907Z,25536
2023-04-01T07:48:23.498Z,26208
2023-04-01T07:49:24.094Z,26560
2023-04-01T07:50:24.751Z,26400
2023-04-01T07:51:25.314Z,26560
2023-04-01T07:52:25.936Z,26720
2023-04-01T07:53:26.557Z,27456
2023-04-01T07:54:27.158Z,27680
2023-04-01T07:55:27.763Z,27296
2023-04-01T07:56:28.365Z,27168
2023-04-01T07:57:29.188Z,27584
2023-04-01T07:58:29.831Z,27712
2023-04-01T07:59:30.445Z,26912
2023-04-01T08:00:31.074Z,26848
2023-04-01T08:01:31.660Z,27360
2023-04-01T08:02:32.325Z,27680
2023-04-01T08:03:33.103Z,28128
2023-04-01T08:04:33.878Z,28096
2023-04-01T08:05:34.611Z,27744
2023-04-01T08:06:35.007Z,26880
2023-04-01T08:07:35.618Z,26176
2023-04-01T08:08:36.219Z,25728
2023-04-01T08:09:36.818Z,26432
2023-04-01T08:10:37.424Z,26304
2023-04-01T08:11:38.018Z,25216
2023-04-01T08:12:38.631Z,24000
2023-04-01T08:13:39.238Z,22624
2023-04-01T08:14:39.827Z,20832
2023-04-01T08:15:40.429Z,18944
2023-04-01T08:16:41.056Z,16848
2023-04-01T08:17:41.684Z,15692
2023-04-01T08:18:42.245Z,14564
2023-04-01T08:19:42.842Z,13580
2023-04-01T08:20:43.447Z,13728
2023-04-01T08:21:44.041Z,14048
2023-04-01T08:22:44.656Z,13204
2023-04-01T08:23:45.251Z,12128
2023-04-01T08:24:47.973Z,11552
2023-04-01T08:25:47.432Z,11324
2023-04-01T08:26:48.031Z,10976
2023-04-01T08:27:48.647Z,11168
2023-04-01T08:28:49.246Z,11172
2023-04-01T08:29:49.847Z,10820
2023-04-01T08:30:50.465Z,10404
2023-04-01T08:31:51.160Z,10020
2023-04-01T08:32:51.799Z,9808
2023-04-01T08:33:52.399Z,9740
2023-04-01T08:34:52.999Z,9372
2023-04-01T08:35:53.605Z,9008
2023-04-01T08:36:54.202Z,8892
2023-04-01T08:37:54.793Z,8904
2023-04-01T08:38:55.390Z,8908
2023-04-01T08:39:56.009Z,9060
2023-04-01T08:40:56.617Z,9280
2023-04-01T08:41:57.224Z,9636
2023-04-01T08:42:57.821Z,9892
2023-04-01T08:43:58.420Z,10020
2023-04-01T08:44:59.017Z,9932
2023-04-01T08:45:59.635Z,9808
2023-04-01T08:47:00.239Z,9504
2023-04-01T08:48:00.865Z,9412
2023-04-01T08:49:01.448Z,9580
2023-04-01T08:50:02.041Z,9692
2023-04-01T08:51:04.560Z,9428
2023-04-01T08:52:03.271Z,8708
2023-04-01T08:53:03.871Z,8152
2023-04-01T08:54:04.466Z,8136
2023-04-01T08:55:05.135Z,8600
2023-04-01T08:56:05.697Z,9248
2023-04-01T08:57:06.366Z,9960
2023-04-01T08:58:06.951Z,10316
2023-04-01T08:59:07.548Z,10496
2023-04-01T09:00:08.152Z,10976
2023-04-01T09:01:08.745Z,11652
2023-04-01T09:02:09.444Z,12196
2023-04-01T09:03:10.143Z,12688
2023-04-01T09:04:10.794Z,12920
2023-04-01T09:05:11.367Z,13008
2023-04-01T09:06:11.964Z,13160
2023-04-01T09:07:12.939Z,13316
2023-04-01T09:08:13.573Z,13292
2023-04-01T09:09:14.163Z,13560
2023-04-01T09:10:14.786Z,13920
2023-04-01T09:11:15.401Z,13716
2023-04-01T09:12:15.999Z,13412
2023-04-01T09:13:16.599Z,13760
2023-04-01T09:14:17.212Z,14304
2023-04-01T09:15:17.825Z,14512
2023-04-01T09:16:18.496Z,15084
2023-04-01T09:17:19.044Z,15432
2023-04-01T09:18:19.643Z,16100
2023-04-01T09:19:20.321Z,17264
2023-04-01T09:20:21.086Z,18912
2023-04-01T09:21:21.552Z,19584
2023-04-01T09:22:22.154Z,20160
2023-04-01T09:23:22.752Z,21152
2023-04-01T09:24:23.352Z,21728
2023-04-01T09:25:23.959Z,22272
2023-04-01T09:26:24.557Z,22432
2023-04-01T09:27:25.223Z,22976
2023-04-01T09:28:25.821Z,24448
2023-04-01T09:29:26.420Z,25792
2023-04-01T09:30:27.032Z,26752
2023-04-01T09:31:27.757Z,27488
2023-04-01T09:32:28.361Z,28576
2023-04-01T09:33:28.921Z,28928
2023-04-01T09:34:29.521Z,28544
2023-04-01T09:35:30.120Z,27648
2023-04-01T09:36:30.725Z,27104
2023-04-01T09:37:31.325Z,27392
2023-04-01T09:38:31.939Z,28320
2023-04-01T09:39:32.548Z,28160
2023-04-01T09:40:33.149Z,26752
2023-04-01T09:41:33.746Z,25120
2023-04-01T09:42:34.347Z,24864
2023-04-01T09:43:35.019Z,25760
2023-04-01T09:44:35.618Z,27008
2023-04-01T09:45:36.217Z,26816
2023-04-01T09:46:36.855Z,24992
2023-04-01T09:47:37.502Z,24704
2023-04-01T09:48:38.069Z,24512
2023-04-01T09:49:38.670Z,23552
2023-04-01T09:50:39.287Z,22560
2023-04-01T09:51:39.892Z,22240
2023-04-01T09:52:40.487Z,21600
2023-04-01T09:53:41.081Z,20448
2023-04-01T09:54:41.683Z,20768
2023-04-01T09:55:42.279Z,21248
2023-04-01T09:56:42.883Z,21312
2023-04-01T09:57:43.480Z,19904
2023-04-01T09:58:44.299Z,19936
2023-04-01T09:59:44.986Z,19680
2023-04-01T10:00:45.586Z,18976
2023-04-01T10:01:46.268Z,17680
2023-04-01T10:02:46.888Z,17340
2023-04-01T10:03:47.512Z,16568
2023-04-01T10:04:48.131Z,15564
2023-04-01T10:05:48.825Z,15044
2023-04-01T10:06:49.578Z,15184
2023-04-01T10:07:50.184Z,15476
2023-04-01T10:08:50.778Z,15584
2023-04-01T10:09:51.409Z,15816
2023-04-01T10:10:51.996Z,16088
2023-04-01T10:11:52.613Z,16356
2023-04-01T10:12:53.215Z,16844
2023-04-01T10:13:53.831Z,18208
2023-04-01T10:14:54.427Z,19520
2023-04-01T10:15:55.095Z,19648
2023-04-01T10:16:55.656Z,18880
2023-04-01T10:17:56.294Z,18464
2023-04-01T10:18:56.895Z,18496
2023-04-01T10:19:57.493Z,18784
2023-04-01T10:20:58.092Z,19136
2023-04-01T10:21:58.696Z,19232
2023-04-01T10:22:59.292Z,18720
2023-04-01T10:23:59.894Z,18144
2023-04-01T10:25:00.492Z,18144
2023-04-01T10:26:01.092Z,18880
2023-04-01T10:27:01.721Z,19328
2023-04-01T10:28:02.297Z,19680
2023-04-01T10:29:02.890Z,21248
2023-04-01T10:30:03.504Z,23616
2023-04-01T10:31:04.108Z,26560
2023-04-01T10:32:04.748Z,30112
2023-04-01T10:33:05.339Z,33248
2023-04-01T10:34:05.920Z,33664
2023-04-01T10:35:06.521Z,32544
2023-04-01T10:36:07.214Z,31232
2023-04-01T10:37:07.791Z,29408
2023-04-01T10:38:08.444Z,26944
2023-04-01T10:39:09.013Z,24320
2023-04-01T10:40:09.611Z,22272
2023-04-01T10:41:10.227Z,21280
2023-04-01T10:42:10.835Z,20544
2023-04-01T10:43:11.425Z,18432
2023-04-01T10:44:12.039Z,15848
2023-04-01T10:45:12.639Z,14500
2023-04-01T10:46:14.909Z,14116
2023-04-01T10:47:13.890Z,14360
2023-04-01T10:48:14.524Z,15424
2023-04-01T10:49:15.089Z,18016
2023-04-01T10:50:15.711Z,19296
2023-04-01T10:51:16.311Z,19584
2023-04-01T10:52:16.903Z,19840
2023-04-01T10:53:17.509Z,20288
2023-04-01T10:54:18.106Z,22240
2023-04-01T10:55:18.718Z,25152
2023-04-01T10:56:19.365Z,27936
2023-04-01T10:57:19.988Z,30112
2023-04-01T10:58:20.572Z,32192
2023-04-01T10:59:21.169Z,35392
2023-04-01T11:00:21.774Z,38528
2023-04-01T11:01:22.396Z,40704
2023-04-01T11:02:23.021Z,41824
2023-04-01T11:03:23.700Z,41440
2023-04-01T11:04:24.340Z,39296
2023-04-01T11:05:24.925Z,37920
2023-04-01T11:06:25.525Z,37856
2023-04-01T11:07:26.149Z,37024
2023-04-01T11:08:26.726Z,35616
2023-04-01T11:09:27.355Z,35616
2023-04-01T11:10:27.924Z,35872
2023-04-01T11:11:28.528Z,35552
2023-04-01T11:12:29.133Z,36320
2023-04-01T11:13:29.742Z,39552
2023-04-01T11:14:30.365Z,44032
2023-04-01T11:15:31.043Z,44768
2023-04-01T11:16:31.729Z,46752
2023-04-01T11:17:32.362Z,48960
2023-04-01T11:18:32.945Z,48864
2023-04-01T11:19:33.561Z,47712
2023-04-01T11:20:34.161Z,46912
2023-04-01T11:21:34.765Z,45664
2023-04-01T11:22:35.363Z,45184
2023-04-01T11:23:35.990Z,45920
2023-04-01T11:24:36.591Z,47104
2023-04-01T11:25:37.220Z,47264
2023-04-01T11:26:37.845Z,48928
2023-04-01T11:27:39.769Z,49856
2023-04-01T11:28:40.007Z,51072
2023-04-01T11:29:49.783Z,52192
2023-04-01T11:30:41.227Z,52576
2023-04-01T11:31:41.948Z,54400
2023-04-01T11:32:42.572Z,58176
2023-04-01T11:33:43.141Z,71712
2023-04-01T11:34:43.747Z,65632
2023-04-01T11:35:44.340Z,48768
2023-04-01T11:36:45.041Z,45152
2023-04-01T11:37:45.591Z,42272
2023-04-01T11:38:46.192Z,38720
2023-04-01T11:39:46.793Z,35008
2023-04-01T11:40:47.398Z,31328
2023-04-01T11:41:48.022Z,28000
2023-04-01T11:42:48.617Z,25376
2023-04-01T11:43:49.218Z,23232
2023-04-01T11:44:49.813Z,21440
2023-04-01T11:45:50.461Z,19936
2023-04-01T11:46:51.018Z,18496
2023-04-01T11:47:51.693Z,17012
2023-04-01T11:48:52.249Z,15972
2023-04-01T11:49:52.863Z,15032
2023-04-01T11:50:53.468Z,14088
2023-04-01T11:51:54.066Z,13180
2023-04-01T11:52:54.707Z,12132
2023-04-01T11:53:55.283Z,11060
2023-04-01T11:54:55.883Z,10244
2023-04-01T11:55:56.486Z,9560
2023-04-01T11:56:57.124Z,8964
2023-04-01T11:57:57.686Z,8340
2023-04-01T11:58:58.283Z,7576
2023-04-01T11:59:58.879Z,7004
2023-04-01T12:00:59.474Z,6724
2023-04-01T12:02:00.097Z,6508
2023-04-01T12:03:00.837Z,6204
2023-04-01T12:04:01.489Z,5812
2023-04-01T12:05:02.285Z,5256
2023-04-01T12:06:02.920Z,4800
2023-04-01T12:07:03.542Z,4516
2023-04-01T12:08:04.142Z,4352
2023-04-01T12:09:04.738Z,4288
2023-04-01T12:10:05.333Z,4164
2023-04-01T12:11:05.928Z,4156
2023-04-01T12:12:06.531Z,4328
2023-04-01T12:13:07.127Z,4544
2023-04-01T12:14:07.755Z,4716
2023-04-01T12:15:08.332Z,4860
2023-04-01T12:16:09.024Z,5136
2023-04-01T12:17:09.571Z,5656
2023-04-01T12:18:10.251Z,6308
2023-04-01T12:19:10.869Z,6592
2023-04-01T12:20:11.486Z,6900
2023-04-01T12:21:12.069Z,8004
2023-04-01T12:22:12.669Z,8140
2023-04-01T12:23:13.265Z,7448
2023-04-01T12:24:13.868Z,7652
2023-04-01T12:25:14.483Z,9144
2023-04-01T12:26:15.095Z,10068
2023-04-01T12:27:15.700Z,8872
2023-04-01T12:28:16.303Z,7780
2023-04-01T12:29:16.942Z,7176
2023-04-01T12:30:17.523Z,6320
2023-04-01T12:31:18.120Z,5856
2023-04-01T12:32:18.859Z,5376
2023-04-01T12:33:19.596Z,5492
2023-04-01T12:34:20.145Z,6548
2023-04-01T12:35:20.778Z,8908
2023-04-01T12:36:21.338Z,12436
2023-04-01T12:37:21.941Z,16000
2023-04-01T12:38:22.589Z,19360
2023-04-01T12:39:23.138Z,21568
2023-04-01T12:40:23.762Z,23136
2023-04-01T12:41:24.357Z,24480
2023-04-01T12:42:24.961Z,25632
2023-04-01T12:43:25.557Z,27264
2023-04-01T12:44:26.157Z,29056
2023-04-01T12:45:26.756Z,30176
2023-04-01T12:46:27.388Z,30944
2023-04-01T12:47:27.959Z,31008
2023-04-01T12:48:28.554Z,31968
2023-04-01T12:49:29.155Z,33344
2023-04-01T12:50:29.760Z,33888
2023-04-01T12:51:30.391Z,34208
2023-04-01T12:52:30.954Z,34176
2023-04-01T12:53:31.555Z,32288
2023-04-01T12:54:32.155Z,31968
2023-04-01T12:55:32.860Z,32192
2023-04-01T12:56:33.520Z,30336
2023-04-01T12:57:34.230Z,31200
2023-04-01T12:58:34.817Z,33408
2023-04-01T12:59:35.413Z,37184
2023-04-01T13:00:36.036Z,39040
2023-04-01T13:01:36.672Z,37920
2023-04-01T13:02:37.340Z,37376
2023-04-01T13:03:37.929Z,36704
2023-04-01T13:04:38.503Z,36704
2023-04-01T13:05:39.102Z,36832
2023-04-01T13:06:39.707Z,38656
2023-04-01T13:07:40.307Z,39648
2023-04-01T13:08:40.913Z,40544
2023-04-01T13:09:41.509Z,41888
2023-04-01T13:10:42.125Z,43328
2023-04-01T13:11:42.725Z,46048
2023-04-01T13:12:43.369Z,46240
2023-04-01T13:13:43.938Z,47488
2023-04-01T13:14:44.541Z,48032
2023-04-01T13:15:45.163Z,43936
2023-04-01T13:16:45.745Z,48672
2023-04-01T13:17:46.439Z,49952
2023-04-01T13:18:46.971Z,49632
2023-04-01T13:19:57.916Z,52256
2023-04-01T13:20:49.161Z,56544
2023-04-01T13:21:49.760Z,51104
2023-04-01T13:22:50.364Z,49408
2023-04-01T13:23:50.967Z,48672
2023-04-01T13:24:51.562Z,48160
2023-04-01T13:25:59.268Z,47360
2023-04-01T13:26:52.778Z,46016
2023-04-01T13:27:53.385Z,43904
2023-04-01T13:28:53.983Z,43168
2023-04-01T13:29:54.593Z,42016
2023-04-01T13:30:55.229Z,39040
2023-04-01T13:31:55.800Z,37472
2023-04-01T13:32:56.448Z,37184
2023-04-01T13:33:57.013Z,36384
2023-04-01T13:34:57.614Z,35232
2023-04-01T13:35:58.256Z,34304
2023-04-01T13:36:58.832Z,32672
2023-04-01T13:37:59.442Z,31968
2023-04-01T13:39:00.051Z,31616
2023-04-01T13:40:00.661Z,30496
2023-04-01T13:41:03.940Z,28896
2023-04-01T13:42:02.944Z,28608
2023-04-01T13:43:03.542Z,28160
2023-04-01T13:44:04.175Z,29184
2023-04-01T13:45:04.763Z,31200